sensor_id;sensor_type;location;lat;lon;timestamp;temperature;humidity
13322;DHT22;6730;46.248;6.930;2023-03-14T00:00:37;8.50;99.90
13322;DHT22;6730;46.248;6.930;2023-03-14T00:03:04;8.80;99.90
13322;DHT22;6730;46.248;6.930;2023-03-14T00:05:30;8.50;99.90
13322;DHT22;6730;46.248;6.930;2023-03-14T00:07:56;8.10;99.90
13322;DHT22;6730;46.248;6.930;2023-03-14T00:10:21;8.00;99.90
13322;DHT22;6730;46.248;6.930;2023-03-14T00:12:47;7.70;99.90
13322;DHT22;6730;46.248;6.930;2023-03-14T00:15:13;7.60;99.90
13322;DHT22;6730;46.248;6.930;2023-03-14T00:17:38;7.50;99.90
13322;DHT22;6730;46.248;6.930;2023-03-14T00:20:06;7.40;99.90
13322;DHT22;6730;46.248;6.930;2023-03-14T00:22:37;7.40;99.90
13322;DHT22;6730;46.248;6.930;2023-03-14T00:25:04;7.30;99.90
13322;DHT22;6730;46.248;6.930;2023-03-14T00:27:30;7.30;99.90
13322;DHT22;6730;46.248;6.930;2023-03-14T00:29:56;7.40;99.90
13322;DHT22;6730;46.248;6.930;2023-03-14T00:32:22;7.70;99.90
13322;DHT22;6730;46.248;6.930;2023-03-14T00:34:47;8.00;99.90
13322;DHT22;6730;46.248;6.930;2023-03-14T00:37:13;8.60;99.90
13322;DHT22;6730;46.248;6.930;2023-03-14T00:39:39;8.80;99.90
13322;DHT22;6730;46.248;6.930;2023-03-14T00:42:05;8.80;99.90
13322;DHT22;6730;46.248;6.930;2023-03-14T00:44:30;8.60;99.90
13322;DHT22;6730;46.248;6.930;2023-03-14T00:46:57;8.40;99.90
13322;DHT22;6730;46.248;6.930;2023-03-14T00:49:23;8.60;99.90
13322;DHT22;6730;46.248;6.930;2023-03-14T00:51:49;8.80;99.90
13322;DHT22;6730;46.248;6.930;2023-03-14T00:54:14;9.00;99.90
13322;DHT22;6730;46.248;6.930;2023-03-14T00:56:40;9.20;99.90
13322;DHT22;6730;46.248;6.930;2023-03-14T00:59:06;9.40;99.90
13322;DHT22;6730;46.248;6.930;2023-03-14T01:01:31;9.60;99.90
13322;DHT22;6730;46.248;6.930;2023-03-14T01:03:57;9.80;99.90
13322;DHT22;6730;46.248;6.930;2023-03-14T01:06:26;9.70;99.90
13322;DHT22;6730;46.248;6.930;2023-03-14T01:08:53;9.20;99.90
13322;DHT22;6730;46.248;6.930;2023-03-14T01:11:25;8.80;99.90
13322;DHT22;6730;46.248;6.930;2023-03-14T01:13:51;8.90;99.90
13322;DHT22;6730;46.248;6.930;2023-03-14T01:16:18;9.10;99.90
13322;DHT22;6730;46.248;6.930;2023-03-14T01:18:45;9.20;99.90
13322;DHT22;6730;46.248;6.930;2023-03-14T01:23:42;9.50;99.90
13322;DHT22;6730;46.248;6.930;2023-03-14T01:26:10;9.60;99.90
13322;DHT22;6730;46.248;6.930;2023-03-14T01:28:36;9.70;99.90
13322;DHT22;6730;46.248;6.930;2023-03-14T01:31:03;9.40;99.90
13322;DHT22;6730;46.248;6.930;2023-03-14T01:33:29;9.20;99.90
13322;DHT22;6730;46.248;6.930;2023-03-14T01:35:55;9.40;99.90
13322;DHT22;6730;46.248;6.930;2023-03-14T01:38:20;9.60;99.90
13322;DHT22;6730;46.248;6.930;2023-03-14T01:40:46;9.80;99.90
13322;DHT22;6730;46.248;6.930;2023-03-14T01:43:17;10.10;99.90
13322;DHT22;6730;46.248;6.930;2023-03-14T01:48:57;10.50;99.90
13322;DHT22;6730;46.248;6.930;2023-03-14T01:51:29;10.50;99.90
13322;DHT22;6730;46.248;6.930;2023-03-14T01:54:02;10.60;99.90
13322;DHT22;6730;46.248;6.930;2023-03-14T01:56:30;10.20;99.90
13322;DHT22;6730;46.248;6.930;2023-03-14T01:58:58;10.00;99.90
13322;DHT22;6730;46.248;6.930;2023-03-14T02:01:25;10.10;99.90
13322;DHT22;6730;46.248;6.930;2023-03-14T02:03:56;10.30;99.90
13322;DHT22;6730;46.248;6.930;2023-03-14T02:06:38;10.40;99.90
13322;DHT22;6730;46.248;6.930;2023-03-14T02:09:05;10.40;99.90
13322;DHT22;6730;46.248;6.930;2023-03-14T02:11:31;10.40;99.90
13322;DHT22;6730;46.248;6.930;2023-03-14T02:13:58;10.40;99.90
13322;DHT22;6730;46.248;6.930;2023-03-14T02:16:24;10.40;99.90
13322;DHT22;6730;46.248;6.930;2023-03-14T02:18:50;10.30;99.90
13322;DHT22;6730;46.248;6.930;2023-03-14T02:21:42;10.40;99.90
13322;DHT22;6730;46.248;6.930;2023-03-14T02:24:30;10.30;99.90
13322;DHT22;6730;46.248;6.930;2023-03-14T02:29:41;10.30;99.90
13322;DHT22;6730;46.248;6.930;2023-03-14T02:32:10;10.00;99.90
13322;DHT22;6730;46.248;6.930;2023-03-14T02:34:36;9.30;99.90
13322;DHT22;6730;46.248;6.930;2023-03-14T02:37:02;9.20;99.90
13322;DHT22;6730;46.248;6.930;2023-03-14T02:39:38;9.00;99.90
13322;DHT22;6730;46.248;6.930;2023-03-14T02:42:05;8.40;99.90
13322;DHT22;6730;46.248;6.930;2023-03-14T02:44:31;7.30;99.90
13322;DHT22;6730;46.248;6.930;2023-03-14T02:46:57;7.30;99.90
13322;DHT22;6730;46.248;6.930;2023-03-14T02:49:22;7.20;99.90
13322;DHT22;6730;46.248;6.930;2023-03-14T02:51:49;7.00;99.90
13322;DHT22;6730;46.248;6.930;2023-03-14T02:54:15;7.20;99.90
13322;DHT22;6730;46.248;6.930;2023-03-14T02:56:41;7.00;99.90
13322;DHT22;6730;46.248;6.930;2023-03-14T02:59:07;7.10;99.90
13322;DHT22;6730;46.248;6.930;2023-03-14T03:01:35;7.50;99.90
13322;DHT22;6730;46.248;6.930;2023-03-14T03:04:01;7.90;99.90
13322;DHT22;6730;46.248;6.930;2023-03-14T03:06:26;7.90;99.90
13322;DHT22;6730;46.248;6.930;2023-03-14T03:08:52;7.90;99.90
13322;DHT22;6730;46.248;6.930;2023-03-14T03:11:18;7.90;99.90
13322;DHT22;6730;46.248;6.930;2023-03-14T03:13:43;7.40;99.90
13322;DHT22;6730;46.248;6.930;2023-03-14T03:16:09;7.40;99.90
13322;DHT22;6730;46.248;6.930;2023-03-14T03:18:35;7.50;99.90
13322;DHT22;6730;46.248;6.930;2023-03-14T03:21:04;7.70;99.90
13322;DHT22;6730;46.248;6.930;2023-03-14T03:23:30;8.10;99.90
13322;DHT22;6730;46.248;6.930;2023-03-14T03:25:55;8.30;99.90
13322;DHT22;6730;46.248;6.930;2023-03-14T03:28:21;8.40;99.90
13322;DHT22;6730;46.248;6.930;2023-03-14T03:30:47;8.30;99.90
13322;DHT22;6730;46.248;6.930;2023-03-14T03:33:13;8.20;99.90
13322;DHT22;6730;46.248;6.930;2023-03-14T03:35:44;8.30;99.90
13322;DHT22;6730;46.248;6.930;2023-03-14T03:38:11;8.10;99.90
13322;DHT22;6730;46.248;6.930;2023-03-14T03:40:37;7.90;99.90
13322;DHT22;6730;46.248;6.930;2023-03-14T03:43:02;7.60;99.90
13322;DHT22;6730;46.248;6.930;2023-03-14T03:45:29;7.80;99.90
13322;DHT22;6730;46.248;6.930;2023-03-14T03:47:55;8.10;99.90
13322;DHT22;6730;46.248;6.930;2023-03-14T03:50:21;8.20;99.90
13322;DHT22;6730;46.248;6.930;2023-03-14T03:52:46;8.10;99.90
13322;DHT22;6730;46.248;6.930;2023-03-14T03:55:12;8.20;99.90
13322;DHT22;6730;46.248;6.930;2023-03-14T03:57:37;8.00;99.90
13322;DHT22;6730;46.248;6.930;2023-03-14T04:00:04;7.90;99.90
13322;DHT22;6730;46.248;6.930;2023-03-14T04:02:31;8.00;99.90
13322;DHT22;6730;46.248;6.930;2023-03-14T04:04:58;8.20;99.90
13322;DHT22;6730;46.248;6.930;2023-03-14T04:07:23;8.10;99.90
13322;DHT22;6730;46.248;6.930;2023-03-14T04:09:49;8.10;99.90
13322;DHT22;6730;46.248;6.930;2023-03-14T04:12:15;8.20;99.90
13322;DHT22;6730;46.248;6.930;2023-03-14T04:14:40;8.20;99.90
13322;DHT22;6730;46.248;6.930;2023-03-14T04:17:07;8.20;99.90
13322;DHT22;6730;46.248;6.930;2023-03-14T04:19:33;8.10;99.90
13322;DHT22;6730;46.248;6.930;2023-03-14T04:21:58;8.20;99.90
13322;DHT22;6730;46.248;6.930;2023-03-14T04:24:24;8.20;99.90
13322;DHT22;6730;46.248;6.930;2023-03-14T04:26:50;8.20;99.90
13322;DHT22;6730;46.248;6.930;2023-03-14T04:29:16;8.10;99.90
13322;DHT22;6730;46.248;6.930;2023-03-14T04:31:41;8.00;99.90
13322;DHT22;6730;46.248;6.930;2023-03-14T04:34:07;8.00;99.90
13322;DHT22;6730;46.248;6.930;2023-03-14T04:36:33;8.00;99.90
13322;DHT22;6730;46.248;6.930;2023-03-14T04:38:58;8.00;99.90
13322;DHT22;6730;46.248;6.930;2023-03-14T04:41:24;8.10;99.90
13322;DHT22;6730;46.248;6.930;2023-03-14T04:43:50;8.30;99.90
13322;DHT22;6730;46.248;6.930;2023-03-14T04:46:16;8.10;99.90
13322;DHT22;6730;46.248;6.930;2023-03-14T04:48:41;8.10;99.90
13322;DHT22;6730;46.248;6.930;2023-03-14T04:51:07;8.20;99.90
13322;DHT22;6730;46.248;6.930;2023-03-14T04:53:33;8.30;99.90
13322;DHT22;6730;46.248;6.930;2023-03-14T04:55:59;8.20;99.90
13322;DHT22;6730;46.248;6.930;2023-03-14T04:58:25;8.00;99.90
13322;DHT22;6730;46.248;6.930;2023-03-14T05:00:51;7.90;99.90
13322;DHT22;6730;46.248;6.930;2023-03-14T05:03:17;8.00;99.90
13322;DHT22;6730;46.248;6.930;2023-03-14T05:05:44;7.80;99.90
13322;DHT22;6730;46.248;6.930;2023-03-14T05:08:10;7.70;99.90
13322;DHT22;6730;46.248;6.930;2023-03-14T05:10:35;7.80;99.90
13322;DHT22;6730;46.248;6.930;2023-03-14T05:13:01;7.80;99.90
13322;DHT22;6730;46.248;6.930;2023-03-14T05:15:27;7.90;99.90
13322;DHT22;6730;46.248;6.930;2023-03-14T05:17:53;7.80;99.90
13322;DHT22;6730;46.248;6.930;2023-03-14T05:20:20;7.90;99.90
13322;DHT22;6730;46.248;6.930;2023-03-14T05:22:46;7.80;99.90
13322;DHT22;6730;46.248;6.930;2023-03-14T05:25:12;7.80;99.90
13322;DHT22;6730;46.248;6.930;2023-03-14T05:27:38;7.70;99.90
13322;DHT22;6730;46.248;6.930;2023-03-14T05:30:05;7.60;99.90
13322;DHT22;6730;46.248;6.930;2023-03-14T05:32:31;7.60;99.90
13322;DHT22;6730;46.248;6.930;2023-03-14T05:34:57;7.60;99.90
13322;DHT22;6730;46.248;6.930;2023-03-14T05:37:25;7.40;99.90
13322;DHT22;6730;46.248;6.930;2023-03-14T05:39:51;7.30;99.90
13322;DHT22;6730;46.248;6.930;2023-03-14T05:42:17;7.30;99.90
13322;DHT22;6730;46.248;6.930;2023-03-14T05:44:42;7.40;99.90
13322;DHT22;6730;46.248;6.930;2023-03-14T05:47:08;7.50;99.90
13322;DHT22;6730;46.248;6.930;2023-03-14T05:49:34;7.60;99.90
13322;DHT22;6730;46.248;6.930;2023-03-14T05:51:59;7.60;99.90
13322;DHT22;6730;46.248;6.930;2023-03-14T05:54:25;7.50;99.90
13322;DHT22;6730;46.248;6.930;2023-03-14T05:56:52;7.60;99.90
13322;DHT22;6730;46.248;6.930;2023-03-14T05:59:17;7.50;99.90
13322;DHT22;6730;46.248;6.930;2023-03-14T06:01:43;7.50;99.90
13322;DHT22;6730;46.248;6.930;2023-03-14T06:04:09;7.50;99.90
13322;DHT22;6730;46.248;6.930;2023-03-14T06:06:35;7.70;99.90
13322;DHT22;6730;46.248;6.930;2023-03-14T06:09:00;7.70;99.90
13322;DHT22;6730;46.248;6.930;2023-03-14T06:11:26;7.50;99.90
13322;DHT22;6730;46.248;6.930;2023-03-14T06:13:52;7.60;99.90
13322;DHT22;6730;46.248;6.930;2023-03-14T06:16:17;7.70;99.90
13322;DHT22;6730;46.248;6.930;2023-03-14T06:18:43;7.70;99.90
13322;DHT22;6730;46.248;6.930;2023-03-14T06:21:11;7.60;99.90
13322;DHT22;6730;46.248;6.930;2023-03-14T06:23:37;7.80;99.90
13322;DHT22;6730;46.248;6.930;2023-03-14T06:26:04;7.90;99.90
13322;DHT22;6730;46.248;6.930;2023-03-14T06:28:31;7.50;99.90
13322;DHT22;6730;46.248;6.930;2023-03-14T06:30:58;7.00;99.90
13322;DHT22;6730;46.248;6.930;2023-03-14T06:33:24;6.90;99.90
13322;DHT22;6730;46.248;6.930;2023-03-14T06:35:49;7.20;99.90
13322;DHT22;6730;46.248;6.930;2023-03-14T06:38:16;7.40;99.90
13322;DHT22;6730;46.248;6.930;2023-03-14T06:40:42;7.60;99.90
13322;DHT22;6730;46.248;6.930;2023-03-14T06:43:08;7.80;99.90
13322;DHT22;6730;46.248;6.930;2023-03-14T06:45:33;7.70;99.90
13322;DHT22;6730;46.248;6.930;2023-03-14T06:47:59;7.80;99.90
13322;DHT22;6730;46.248;6.930;2023-03-14T06:50:25;7.90;99.90
13322;DHT22;6730;46.248;6.930;2023-03-14T06:52:50;8.10;99.90
13322;DHT22;6730;46.248;6.930;2023-03-14T06:55:16;8.00;99.90
13322;DHT22;6730;46.248;6.930;2023-03-14T06:57:42;8.00;99.90
13322;DHT22;6730;46.248;6.930;2023-03-14T07:00:10;8.00;99.90
13322;DHT22;6730;46.248;6.930;2023-03-14T07:02:36;8.10;99.90
13322;DHT22;6730;46.248;6.930;2023-03-14T07:05:05;8.20;99.90
13322;DHT22;6730;46.248;6.930;2023-03-14T07:07:30;7.90;99.90
13322;DHT22;6730;46.248;6.930;2023-03-14T07:09:56;7.60;99.90
13322;DHT22;6730;46.248;6.930;2023-03-14T07:12:22;7.50;99.90
13322;DHT22;6730;46.248;6.930;2023-03-14T07:14:47;7.40;99.90
13322;DHT22;6730;46.248;6.930;2023-03-14T07:17:13;7.30;99.90
13322;DHT22;6730;46.248;6.930;2023-03-14T07:19:39;7.40;99.90
13322;DHT22;6730;46.248;6.930;2023-03-14T07:22:05;7.40;99.90
13322;DHT22;6730;46.248;6.930;2023-03-14T07:24:31;7.40;99.90
13322;DHT22;6730;46.248;6.930;2023-03-14T07:26:56;7.30;99.90
13322;DHT22;6730;46.248;6.930;2023-03-14T07:29:24;6.90;99.90
13322;DHT22;6730;46.248;6.930;2023-03-14T07:31:50;6.90;99.90
13322;DHT22;6730;46.248;6.930;2023-03-14T07:34:16;7.20;99.90
13322;DHT22;6730;46.248;6.930;2023-03-14T07:36:41;7.40;99.90
13322;DHT22;6730;46.248;6.930;2023-03-14T07:39:07;7.40;99.90
13322;DHT22;6730;46.248;6.930;2023-03-14T07:41:33;7.20;99.90
13322;DHT22;6730;46.248;6.930;2023-03-14T07:44:00;7.50;99.90
13322;DHT22;6730;46.248;6.930;2023-03-14T07:46:26;7.70;99.90
13322;DHT22;6730;46.248;6.930;2023-03-14T07:48:51;7.90;99.90
13322;DHT22;6730;46.248;6.930;2023-03-14T07:51:17;8.20;99.90
13322;DHT22;6730;46.248;6.930;2023-03-14T07:53:43;8.40;99.90
13322;DHT22;6730;46.248;6.930;2023-03-14T07:56:09;8.60;99.90
13322;DHT22;6730;46.248;6.930;2023-03-14T07:58:35;8.70;99.90
13322;DHT22;6730;46.248;6.930;2023-03-14T08:01:00;8.70;99.90
13322;DHT22;6730;46.248;6.930;2023-03-14T08:03:26;8.60;99.90
13322;DHT22;6730;46.248;6.930;2023-03-14T08:05:51;8.20;99.90
13322;DHT22;6730;46.248;6.930;2023-03-14T08:08:18;8.20;99.90
13322;DHT22;6730;46.248;6.930;2023-03-14T08:10:44;8.20;99.90
13322;DHT22;6730;46.248;6.930;2023-03-14T08:13:10;7.90;99.90
13322;DHT22;6730;46.248;6.930;2023-03-14T08:15:36;8.00;99.90
13322;DHT22;6730;46.248;6.930;2023-03-14T08:18:03;8.20;99.90
13322;DHT22;6730;46.248;6.930;2023-03-14T08:20:29;8.30;99.90
13322;DHT22;6730;46.248;6.930;2023-03-14T08:22:56;8.30;99.90
13322;DHT22;6730;46.248;6.930;2023-03-14T08:25:23;8.60;99.90
13322;DHT22;6730;46.248;6.930;2023-03-14T08:27:48;8.70;99.90
13322;DHT22;6730;46.248;6.930;2023-03-14T08:30:16;8.80;99.90
13322;DHT22;6730;46.248;6.930;2023-03-14T08:32:42;8.70;99.90
13322;DHT22;6730;46.248;6.930;2023-03-14T08:35:09;8.60;99.90
13322;DHT22;6730;46.248;6.930;2023-03-14T08:37:35;8.80;99.90
13322;DHT22;6730;46.248;6.930;2023-03-14T08:40:02;8.80;99.90
13322;DHT22;6730;46.248;6.930;2023-03-14T08:42:32;9.00;99.90
13322;DHT22;6730;46.248;6.930;2023-03-14T08:44:58;9.00;99.90
13322;DHT22;6730;46.248;6.930;2023-03-14T08:47:24;8.70;99.90
13322;DHT22;6730;46.248;6.930;2023-03-14T08:49:49;8.50;99.90
13322;DHT22;6730;46.248;6.930;2023-03-14T08:52:15;8.60;99.90
13322;DHT22;6730;46.248;6.930;2023-03-14T08:54:43;8.60;99.90
13322;DHT22;6730;46.248;6.930;2023-03-14T08:57:09;7.60;99.90
13322;DHT22;6730;46.248;6.930;2023-03-14T08:59:35;7.20;99.90
13322;DHT22;6730;46.248;6.930;2023-03-14T09:02:01;7.30;99.90
13322;DHT22;6730;46.248;6.930;2023-03-14T09:04:29;7.50;99.90
13322;DHT22;6730;46.248;6.930;2023-03-14T09:06:55;8.00;99.90
13322;DHT22;6730;46.248;6.930;2023-03-14T09:09:24;7.90;99.90
13322;DHT22;6730;46.248;6.930;2023-03-14T09:11:49;7.30;99.90
13322;DHT22;6730;46.248;6.930;2023-03-14T09:14:15;7.20;99.90
13322;DHT22;6730;46.248;6.930;2023-03-14T09:16:40;7.10;99.90
13322;DHT22;6730;46.248;6.930;2023-03-14T09:19:06;7.30;99.90
13322;DHT22;6730;46.248;6.930;2023-03-14T09:21:32;7.70;99.90
13322;DHT22;6730;46.248;6.930;2023-03-14T09:23:57;8.10;99.90
13322;DHT22;6730;46.248;6.930;2023-03-14T09:26:23;7.90;99.90
13322;DHT22;6730;46.248;6.930;2023-03-14T09:28:49;7.90;99.90
13322;DHT22;6730;46.248;6.930;2023-03-14T09:31:14;8.00;99.90
13322;DHT22;6730;46.248;6.930;2023-03-14T09:33:40;7.90;99.90
13322;DHT22;6730;46.248;6.930;2023-03-14T09:36:07;7.20;99.90
13322;DHT22;6730;46.248;6.930;2023-03-14T09:38:33;6.90;99.90
13322;DHT22;6730;46.248;6.930;2023-03-14T09:41:01;6.80;99.90
13322;DHT22;6730;46.248;6.930;2023-03-14T09:43:33;6.70;99.90
13322;DHT22;6730;46.248;6.930;2023-03-14T09:46:02;6.50;99.90
13322;DHT22;6730;46.248;6.930;2023-03-14T09:48:30;6.80;99.90
13322;DHT22;6730;46.248;6.930;2023-03-14T09:50:59;7.00;99.90
13322;DHT22;6730;46.248;6.930;2023-03-14T09:53:37;7.20;99.90
13322;DHT22;6730;46.248;6.930;2023-03-14T09:56:03;7.40;99.90
13322;DHT22;6730;46.248;6.930;2023-03-14T09:58:30;6.90;99.90
13322;DHT22;6730;46.248;6.930;2023-03-14T10:00:57;6.70;99.90
13322;DHT22;6730;46.248;6.930;2023-03-14T10:03:29;6.80;99.90
13322;DHT22;6730;46.248;6.930;2023-03-14T10:05:56;6.70;99.90
13322;DHT22;6730;46.248;6.930;2023-03-14T10:08:22;6.60;99.90
13322;DHT22;6730;46.248;6.930;2023-03-14T10:10:48;7.00;99.90
13322;DHT22;6730;46.248;6.930;2023-03-14T10:13:16;7.20;99.90
13322;DHT22;6730;46.248;6.930;2023-03-14T10:15:48;7.70;99.90
13322;DHT22;6730;46.248;6.930;2023-03-14T10:18:16;7.80;99.90
13322;DHT22;6730;46.248;6.930;2023-03-14T10:20:47;7.90;99.90
13322;DHT22;6730;46.248;6.930;2023-03-14T10:25:44;6.70;99.90
13322;DHT22;6730;46.248;6.930;2023-03-14T10:28:26;6.40;99.90
13322;DHT22;6730;46.248;6.930;2023-03-14T10:30:52;6.50;99.90
13322;DHT22;6730;46.248;6.930;2023-03-14T10:33:23;6.80;99.90
13322;DHT22;6730;46.248;6.930;2023-03-14T10:36:23;7.00;99.90
13322;DHT22;6730;46.248;6.930;2023-03-14T10:38:57;7.10;99.90
13322;DHT22;6730;46.248;6.930;2023-03-14T10:41:27;7.20;99.90
13322;DHT22;6730;46.248;6.930;2023-03-14T10:43:57;7.40;99.90
13322;DHT22;6730;46.248;6.930;2023-03-14T10:46:25;7.40;99.90
13322;DHT22;6730;46.248;6.930;2023-03-14T10:48:54;6.90;99.90
13322;DHT22;6730;46.248;6.930;2023-03-14T10:51:26;6.40;99.90
13322;DHT22;6730;46.248;6.930;2023-03-14T10:54:19;6.30;99.90
13322;DHT22;6730;46.248;6.930;2023-03-14T10:56:56;6.30;99.90
13322;DHT22;6730;46.248;6.930;2023-03-14T10:59:22;6.30;99.90
13322;DHT22;6730;46.248;6.930;2023-03-14T11:01:55;6.30;99.90
13322;DHT22;6730;46.248;6.930;2023-03-14T11:07:04;6.70;99.90
13322;DHT22;6730;46.248;6.930;2023-03-14T11:10:02;6.90;99.90
13322;DHT22;6730;46.248;6.930;2023-03-14T11:15:30;7.00;99.90
13322;DHT22;6730;46.248;6.930;2023-03-14T11:29:41;7.10;99.90
13322;DHT22;6730;46.248;6.930;2023-03-14T11:32:23;7.30;99.90
13322;DHT22;6730;46.248;6.930;2023-03-14T11:34:54;7.50;99.90
13322;DHT22;6730;46.248;6.930;2023-03-14T11:37:52;7.50;99.90
13322;DHT22;6730;46.248;6.930;2023-03-14T11:40:22;7.50;99.90
13322;DHT22;6730;46.248;6.930;2023-03-14T11:43:10;7.40;99.90
13322;DHT22;6730;46.248;6.930;2023-03-14T11:45:38;7.40;99.90
13322;DHT22;6730;46.248;6.930;2023-03-14T11:48:13;7.50;99.90
13322;DHT22;6730;46.248;6.930;2023-03-14T11:50:42;7.60;99.90
13322;DHT22;6730;46.248;6.930;2023-03-14T11:53:19;7.50;99.90
13322;DHT22;6730;46.248;6.930;2023-03-14T11:55:47;7.60;99.90
13322;DHT22;6730;46.248;6.930;2023-03-14T11:58:23;7.50;99.90
13322;DHT22;6730;46.248;6.930;2023-03-14T12:00:52;7.40;99.90
13322;DHT22;6730;46.248;6.930;2023-03-14T12:03:45;7.20;99.90
13322;DHT22;6730;46.248;6.930;2023-03-14T12:09:01;7.60;99.90
13322;DHT22;6730;46.248;6.930;2023-03-14T12:11:47;7.70;99.90
13322;DHT22;6730;46.248;6.930;2023-03-14T12:16:46;8.00;99.90
13322;DHT22;6730;46.248;6.930;2023-03-14T12:19:39;7.80;99.90
13322;DHT22;6730;46.248;6.930;2023-03-14T12:22:07;7.90;99.90
13322;DHT22;6730;46.248;6.930;2023-03-14T12:24:36;8.00;99.90
13322;DHT22;6730;46.248;6.930;2023-03-14T12:27:04;8.20;99.90
13322;DHT22;6730;46.248;6.930;2023-03-14T12:29:31;8.50;99.90
13322;DHT22;6730;46.248;6.930;2023-03-14T12:32:07;8.70;99.90
13322;DHT22;6730;46.248;6.930;2023-03-14T12:34:34;8.80;99.90
13322;DHT22;6730;46.248;6.930;2023-03-14T12:37:19;9.00;99.90
13322;DHT22;6730;46.248;6.930;2023-03-14T12:39:58;7.70;99.90
13322;DHT22;6730;46.248;6.930;2023-03-14T12:50:16;6.10;99.90
13322;DHT22;6730;46.248;6.930;2023-03-14T12:55:33;6.40;99.90
13322;DHT22;6730;46.248;6.930;2023-03-14T13:00:55;6.80;99.90
13322;DHT22;6730;46.248;6.930;2023-03-14T13:03:23;6.80;99.90
13322;DHT22;6730;46.248;6.930;2023-03-14T13:06:01;6.90;99.90
13322;DHT22;6730;46.248;6.930;2023-03-14T13:08:40;7.00;99.90
13322;DHT22;6730;46.248;6.930;2023-03-14T13:11:19;7.20;99.90
13322;DHT22;6730;46.248;6.930;2023-03-14T13:13:52;6.50;99.90
13322;DHT22;6730;46.248;6.930;2023-03-14T13:16:21;6.20;99.90
13322;DHT22;6730;46.248;6.930;2023-03-14T13:18:48;6.40;99.90
13322;DHT22;6730;46.248;6.930;2023-03-14T13:21:19;6.30;99.90
13322;DHT22;6730;46.248;6.930;2023-03-14T13:24:07;5.90;99.90
13322;DHT22;6730;46.248;6.930;2023-03-14T13:26:37;5.50;99.90
13322;DHT22;6730;46.248;6.930;2023-03-14T13:29:22;5.40;99.90
13322;DHT22;6730;46.248;6.930;2023-03-14T13:31:51;5.50;99.90
13322;DHT22;6730;46.248;6.930;2023-03-14T13:34:17;5.70;99.90
13322;DHT22;6730;46.248;6.930;2023-03-14T13:36:43;5.90;99.90
13322;DHT22;6730;46.248;6.930;2023-03-14T13:39:19;5.80;99.90
13322;DHT22;6730;46.248;6.930;2023-03-14T13:41:47;5.80;99.90
13322;DHT22;6730;46.248;6.930;2023-03-14T13:44:17;5.90;99.90
13322;DHT22;6730;46.248;6.930;2023-03-14T13:46:45;5.70;99.90
13322;DHT22;6730;46.248;6.930;2023-03-14T13:49:16;5.80;99.90
13322;DHT22;6730;46.248;6.930;2023-03-14T13:51:43;6.00;99.90
13322;DHT22;6730;46.248;6.930;2023-03-14T13:54:17;6.30;99.90
13322;DHT22;6730;46.248;6.930;2023-03-14T13:56:43;6.90;99.90
13322;DHT22;6730;46.248;6.930;2023-03-14T13:59:33;7.20;99.90
13322;DHT22;6730;46.248;6.930;2023-03-14T14:02:03;7.50;99.90
13322;DHT22;6730;46.248;6.930;2023-03-14T14:04:33;7.40;99.90
13322;DHT22;6730;46.248;6.930;2023-03-14T14:07:09;6.80;99.90
13322;DHT22;6730;46.248;6.930;2023-03-14T14:09:42;6.50;99.90
13322;DHT22;6730;46.248;6.930;2023-03-14T14:17:41;6.30;99.90
13322;DHT22;6730;46.248;6.930;2023-03-14T14:20:31;6.40;99.90
13322;DHT22;6730;46.248;6.930;2023-03-14T14:22:58;6.50;99.90
13322;DHT22;6730;46.248;6.930;2023-03-14T14:25:24;6.50;99.90
13322;DHT22;6730;46.248;6.930;2023-03-14T14:27:50;6.50;99.90
13322;DHT22;6730;46.248;6.930;2023-03-14T14:32:50;6.30;99.90
13322;DHT22;6730;46.248;6.930;2023-03-14T14:35:33;6.30;99.90
13322;DHT22;6730;46.248;6.930;2023-03-14T14:38:00;6.70;99.90
13322;DHT22;6730;46.248;6.930;2023-03-14T14:40:28;7.20;99.90
13322;DHT22;6730;46.248;6.930;2023-03-14T14:42:55;7.60;99.90
13322;DHT22;6730;46.248;6.930;2023-03-14T14:45:28;7.90;99.90
13322;DHT22;6730;46.248;6.930;2023-03-14T14:48:14;8.10;99.90
13322;DHT22;6730;46.248;6.930;2023-03-14T14:53:35;8.30;99.90
13322;DHT22;6730;46.248;6.930;2023-03-14T14:56:15;8.40;99.90
13322;DHT22;6730;46.248;6.930;2023-03-14T14:58:44;8.40;99.90
13322;DHT22;6730;46.248;6.930;2023-03-14T15:01:18;8.20;99.90
13322;DHT22;6730;46.248;6.930;2023-03-14T15:03:47;8.10;99.90
13322;DHT22;6730;46.248;6.930;2023-03-14T15:06:14;8.10;99.90
13322;DHT22;6730;46.248;6.930;2023-03-14T15:08:43;8.10;99.90
13322;DHT22;6730;46.248;6.930;2023-03-14T15:11:17;8.10;99.90
13322;DHT22;6730;46.248;6.930;2023-03-14T15:13:42;7.90;99.90
13322;DHT22;6730;46.248;6.930;2023-03-14T15:16:12;7.60;99.90
13322;DHT22;6730;46.248;6.930;2023-03-14T15:18:39;7.50;99.90
13322;DHT22;6730;46.248;6.930;2023-03-14T15:21:05;7.50;99.90
13322;DHT22;6730;46.248;6.930;2023-03-14T15:23:31;7.40;99.90
13322;DHT22;6730;46.248;6.930;2023-03-14T15:25:56;7.20;99.90
13322;DHT22;6730;46.248;6.930;2023-03-14T15:28:25;7.00;99.90
13322;DHT22;6730;46.248;6.930;2023-03-14T15:30:53;6.80;99.90
13322;DHT22;6730;46.248;6.930;2023-03-14T15:33:20;6.70;99.90
13322;DHT22;6730;46.248;6.930;2023-03-14T15:35:46;6.80;99.90
13322;DHT22;6730;46.248;6.930;2023-03-14T15:38:18;6.60;99.90
13322;DHT22;6730;46.248;6.930;2023-03-14T15:40:46;6.70;99.90
13322;DHT22;6730;46.248;6.930;2023-03-14T15:43:12;6.70;99.90
13322;DHT22;6730;46.248;6.930;2023-03-14T15:45:38;6.70;99.90
13322;DHT22;6730;46.248;6.930;2023-03-14T15:48:04;6.90;99.90
13322;DHT22;6730;46.248;6.930;2023-03-14T15:50:30;7.00;99.90
13322;DHT22;6730;46.248;6.930;2023-03-14T15:52:56;7.10;99.90
13322;DHT22;6730;46.248;6.930;2023-03-14T15:55:22;6.70;99.90
13322;DHT22;6730;46.248;6.930;2023-03-14T15:57:48;6.50;99.90
13322;DHT22;6730;46.248;6.930;2023-03-14T16:00:18;6.50;99.90
13322;DHT22;6730;46.248;6.930;2023-03-14T16:02:44;6.30;99.90
13322;DHT22;6730;46.248;6.930;2023-03-14T16:05:11;5.90;99.90
13322;DHT22;6730;46.248;6.930;2023-03-14T16:07:38;6.00;99.90
13322;DHT22;6730;46.248;6.930;2023-03-14T16:10:05;6.40;99.90
13322;DHT22;6730;46.248;6.930;2023-03-14T16:12:31;7.00;99.90
13322;DHT22;6730;46.248;6.930;2023-03-14T16:14:57;7.40;99.90
13322;DHT22;6730;46.248;6.930;2023-03-14T16:17:23;7.30;99.90
13322;DHT22;6730;46.248;6.930;2023-03-14T16:19:49;7.30;99.90
13322;DHT22;6730;46.248;6.930;2023-03-14T16:22:14;7.10;99.90
13322;DHT22;6730;46.248;6.930;2023-03-14T16:24:40;7.10;99.90
13322;DHT22;6730;46.248;6.930;2023-03-14T16:27:05;7.00;99.90
13322;DHT22;6730;46.248;6.930;2023-03-14T16:29:31;6.90;99.90
13322;DHT22;6730;46.248;6.930;2023-03-14T16:31:57;6.90;99.90
13322;DHT22;6730;46.248;6.930;2023-03-14T16:34:22;6.70;99.90
13322;DHT22;6730;46.248;6.930;2023-03-14T16:36:48;6.70;99.90
13322;DHT22;6730;46.248;6.930;2023-03-14T16:39:17;6.70;99.90
13322;DHT22;6730;46.248;6.930;2023-03-14T16:41:43;6.60;99.90
13322;DHT22;6730;46.248;6.930;2023-03-14T16:44:09;6.70;99.90
13322;DHT22;6730;46.248;6.930;2023-03-14T16:46:34;6.60;99.90
13322;DHT22;6730;46.248;6.930;2023-03-14T16:49:01;6.50;99.90
13322;DHT22;6730;46.248;6.930;2023-03-14T16:51:27;6.30;99.90
13322;DHT22;6730;46.248;6.930;2023-03-14T16:53:53;6.30;99.90
13322;DHT22;6730;46.248;6.930;2023-03-14T16:56:19;6.40;99.90
13322;DHT22;6730;46.248;6.930;2023-03-14T16:58:45;6.50;99.90
13322;DHT22;6730;46.248;6.930;2023-03-14T17:01:12;6.50;99.90
13322;DHT22;6730;46.248;6.930;2023-03-14T17:03:43;6.10;99.90
13322;DHT22;6730;46.248;6.930;2023-03-14T17:06:11;6.10;99.90